Time;durP1;ratioP1;P1;durP2;ratioP2;P2;SDS_P1;SDS_P2;PMS_P1;PMS_P2;Temp;Humidity;BMP_temperature;BMP_pressure;BME280_temperature;BME280_humidity;BME280_pressure;Samples;Min_cycle;Max_cycle;Signal;HPM_P1;HPM_P2
2024/03/20 00:02:06;;;;;;;16.70;10.88;;;10.40;1.00;;;;;;5096350;28;20024;-67
2024/03/20 00:04:31;;;;;;;17.05;11.35;;;10.40;1.00;;;;;;5096221;28;20050;-67
2024/03/20 00:06:57;;;;;;;18.33;10.90;;;10.40;1.00;;;;;;5095973;28;20028;-67
2024/03/20 00:09:23;;;;;;;16.00;11.02;;;10.40;1.00;;;;;;5096118;28;20107;-67
2024/03/20 00:11:49;;;;;;;17.63;10.70;;;10.40;1.00;;;;;;5096054;28;20469;-67
2024/03/20 00:14:15;;;;;;;18.80;11.00;;;10.30;1.00;;;;;;5095738;28;20032;-67
2024/03/20 00:16:41;;;;;;;17.73;10.35;;;10.30;1.00;;;;;;5095851;28;20059;-68
2024/03/20 00:19:07;;;;;;;16.17;10.65;;;10.30;1.00;;;;;;5096111;28;20027;-67
2024/03/20 00:21:34;;;;;;;17.02;10.23;;;10.30;1.00;;;;;;5095441;28;20032;-67
2024/03/20 00:24:00;;;;;;;16.83;9.82;;;10.20;1.00;;;;;;5095645;28;20478;-67
2024/03/20 00:26:26;;;;;;;15.50;10.52;;;10.20;1.00;;;;;;5095800;28;20513;-67
2024/03/20 00:28:52;;;;;;;17.67;9.60;;;10.20;1.00;;;;;;5095210;28;20052;-68
2024/03/20 00:31:17;;;;;;;15.48;10.05;;;10.10;1.00;;;;;;5095701;28;20429;-67
2024/03/20 00:33:43;;;;;;;15.73;9.73;;;10.00;1.00;;;;;;5095292;28;20423;-67
2024/03/20 00:36:09;;;;;;;16.42;10.52;;;9.90;1.00;;;;;;5095501;28;20401;-67
2024/03/20 00:38:34;;;;;;;15.85;10.23;;;9.90;1.00;;;;;;5095453;28;20032;-67
2024/03/20 00:41:00;;;;;;;18.95;11.73;;;9.80;9.40;;;;;;5095016;28;20048;-67
2024/03/20 00:43:25;;;;;;;17.48;10.50;;;9.80;21.10;;;;;;5095445;28;20028;-67
2024/03/20 00:45:51;;;;;;;19.17;10.60;;;9.80;23.60;;;;;;5095460;28;20020;-67
2024/03/20 00:48:16;;;;;;;22.65;11.57;;;9.80;24.80;;;;;;5095345;28;20056;-67
2024/03/20 00:50:42;;;;;;;15.10;10.10;;;9.70;36.90;;;;;;5095497;28;20036;-67
2024/03/20 00:53:07;;;;;;;17.50;10.52;;;9.60;39.40;;;;;;5095122;28;20032;-67
2024/03/20 00:55:34;;;;;;;14.18;10.20;;;9.60;42.00;;;;;;5094887;28;20028;-67
2024/03/20 00:58:00;;;;;;;16.08;9.35;;;9.50;47.20;;;;;;5094923;28;20028;-67
2024/03/20 01:00:26;;;;;;;13.90;9.70;;;9.40;50.90;;;;;;5094556;28;20027;-67
2024/03/20 01:02:51;;;;;;;17.27;9.98;;;9.40;57.10;;;;;;5094647;28;20115;-67
2024/03/20 01:05:17;;;;;;;16.38;10.35;;;9.40;58.20;;;;;;5094414;28;20382;-67
2024/03/20 01:07:42;;;;;;;15.90;11.10;;;9.40;66.20;;;;;;5094623;28;20020;-67
2024/03/20 01:10:08;;;;;;;13.05;9.82;;;9.40;75.00;;;;;;5095066;28;20035;-67
2024/03/20 01:12:35;;;;;;;13.02;9.95;;;9.30;63.00;;;;;;5094840;28;20028;-67
2024/03/20 01:15:01;;;;;;;16.02;10.55;;;9.30;61.40;;;;;;5094864;28;20035;-67
2024/03/20 01:17:28;;;;;;;17.60;10.52;;;9.10;60.90;;;;;;5094748;28;20478;-67
2024/03/20 01:19:54;;;;;;;14.45;9.30;;;9.00;67.30;;;;;;5094508;28;20035;-67
2024/03/20 01:22:20;;;;;;;12.00;9.07;;;8.90;78.50;;;;;;5094724;28;20039;-67
2024/03/20 01:24:45;;;;;;;14.15;9.50;;;8.80;89.00;;;;;;5094643;28;20073;-67
2024/03/20 01:27:11;;;;;;;15.30;9.52;;;8.80;94.90;;;;;;5094494;28;20028;-67
2024/03/20 01:29:36;;;;;;;14.52;9.68;;;8.70;98.30;;;;;;5094692;28;20035;-67
2024/03/20 01:32:02;;;;;;;14.20;9.52;;;8.60;99.90;;;;;;5094524;28;20020;-67
2024/03/20 01:34:28;;;;;;;14.70;9.77;;;8.60;99.90;;;;;;5094391;28;20030;-67
2024/03/20 01:36:53;;;;;;;20.35;10.60;;;8.60;99.90;;;;;;5094011;28;20020;-67
2024/03/20 01:39:19;;;;;;;16.85;9.85;;;8.60;99.90;;;;;;5094371;28;20032;-67
2024/03/20 01:41:45;;;;;;;15.38;9.80;;;8.60;99.90;;;;;;5093861;28;20509;-67
2024/03/20 01:44:11;;;;;;;15.18;10.20;;;8.60;99.90;;;;;;5094407;28;20060;-67
2024/03/20 01:46:37;;;;;;;12.23;9.70;;;8.60;99.90;;;;;;5094070;28;20020;-67
2024/03/20 01:49:04;;;;;;;18.77;10.70;;;8.50;99.90;;;;;;5093974;28;20023;-67
2024/03/20 01:51:31;;;;;;;16.33;10.20;;;8.50;99.90;;;;;;5093872;28;20055;-67
2024/03/20 01:53:58;;;;;;;13.13;9.43;;;8.50;99.90;;;;;;5094162;28;20035;-67
2024/03/20 01:56:24;;;;;;;17.70;10.25;;;8.50;99.90;;;;;;5094005;28;20473;-67
2024/03/20 01:58:49;;;;;;;15.27;9.73;;;8.50;99.90;;;;;;5093631;28;20035;-67
2024/03/20 02:01:16;;;;;;;16.38;9.32;;;8.50;99.90;;;;;;5093801;28;20029;-67
2024/03/20 02:03:43;;;;;;;16.20;10.23;;;8.50;99.90;;;;;;5093968;28;20052;-67
2024/03/20 02:06:23;;;;;;;13.02;8.68;;;8.40;99.90;;;;;;5094031;28;20500;-67
2024/03/20 02:08:50;;;;;;;13.30;9.10;;;8.40;99.90;;;;;;5093934;28;20020;-67
2024/03/20 02:11:15;;;;;;;15.18;9.73;;;8.40;99.90;;;;;;5093902;28;20028;-67
2024/03/20 02:13:50;;;;;;;14.55;9.00;;;8.30;99.90;;;;;;5093733;28;20401;-67
2024/03/20 02:16:17;;;;;;;15.13;9.98;;;8.30;99.90;;;;;;5093523;28;20024;-67
2024/03/20 02:18:43;;;;;;;17.80;9.50;;;8.20;99.90;;;;;;5093794;28;20024;-67
2024/03/20 02:21:10;;;;;;;16.75;10.45;;;8.20;99.90;;;;;;5093484;28;20119;-67
2024/03/20 02:23:36;;;;;;;15.27;9.60;;;8.10;99.90;;;;;;5093428;28;20028;-67
2024/03/20 02:26:04;;;;;;;15.88;9.52;;;8.10;99.90;;;;;;5093592;28;20073;-67
2024/03/20 02:28:31;;;;;;;13.50;8.52;;;8.10;99.90;;;;;;5073387;28;20024;-66
2024/03/20 02:30:57;;;;;;;15.13;9.13;;;8.00;99.90;;;;;;5073392;28;20107;-67
2024/03/20 02:33:22;;;;;;;15.35;9.35;;;7.90;99.90;;;;;;5073419;28;20459;-67
2024/03/20 02:35:51;;;;;;;17.45;10.43;;;7.90;99.90;;;;;;5073284;28;20048;-67
2024/03/20 02:38:16;;;;;;;16.15;9.00;;;7.80;99.90;;;;;;5073423;28;20039;-67
2024/03/20 02:40:42;;;;;;;17.88;10.02;;;7.80;99.90;;;;;;5072772;28;20057;-67
2024/03/20 02:43:07;;;;;;;17.25;10.10;;;7.80;99.90;;;;;;5073325;28;20055;-67
2024/03/20 02:45:33;;;;;;;19.10;10.23;;;7.80;99.90;;;;;;5073011;28;20115;-67
2024/03/20 02:47:58;;;;;;;14.10;9.57;;;7.70;99.90;;;;;;5073091;28;20032;-67
2024/03/20 02:50:24;;;;;;;15.15;9.88;;;7.70;99.90;;;;;;5072794;28;20029;-67
2024/03/20 02:52:49;;;;;;;19.08;10.60;;;7.60;99.90;;;;;;5073256;28;20052;-67
2024/03/20 02:55:15;;;;;;;16.02;9.63;;;7.70;99.90;;;;;;5073220;28;20429;-67
2024/03/20 02:57:40;;;;;;;14.90;9.77;;;7.60;99.90;;;;;;5072967;28;20549;-66
2024/03/20 03:00:07;;;;;;;14.43;9.30;;;7.60;99.90;;;;;;5072882;28;20371;-67
2024/03/20 03:02:33;;;;;;;15.40;10.48;;;7.60;99.90;;;;;;5073074;28;20021;-67
2024/03/20 03:04:58;;;;;;;16.08;10.07;;;7.50;99.90;;;;;;5072555;28;20021;-67
2024/03/20 03:07:26;;;;;;;16.45;9.95;;;7.50;99.90;;;;;;5072605;28;20198;-67
2024/03/20 03:09:51;;;;;;;15.38;10.05;;;7.50;99.90;;;;;;5072630;28;20174;-67
2024/03/20 03:12:17;;;;;;;15.48;9.43;;;7.40;99.90;;;;;;5073023;28;20521;-67
2024/03/20 03:14:42;;;;;;;14.65;10.25;;;7.40;99.90;;;;;;5072891;28;20032;-67
2024/03/20 03:17:08;;;;;;;16.25;10.32;;;7.40;99.90;;;;;;5072823;28;20109;-67
2024/03/20 03:19:34;;;;;;;14.40;9.95;;;7.30;99.90;;;;;;5072626;28;20078;-67
2024/03/20 03:21:59;;;;;;;18.60;11.02;;;7.30;99.90;;;;;;5072571;28;20029;-67
2024/03/20 03:24:25;;;;;;;18.10;10.43;;;7.30;99.90;;;;;;5072698;28;20032;-67
2024/03/20 03:26:50;;;;;;;19.75;11.82;;;7.30;99.90;;;;;;5073583;28;20433;-67
2024/03/20 03:29:16;;;;;;;17.02;11.38;;;7.30;99.90;;;;;;5076407;28;20029;-66
2024/03/20 03:31:41;;;;;;;17.58;11.35;;;7.30;99.90;;;;;;5076559;28;20039;-67
2024/03/20 03:34:07;;;;;;;15.50;10.25;;;7.30;99.90;;;;;;5076184;28;20024;-67
2024/03/20 03:36:34;;;;;;;16.08;10.27;;;7.30;99.90;;;;;;5076483;28;20040;-66
2024/03/20 03:38:59;;;;;;;17.95;10.68;;;7.30;99.90;;;;;;5076051;28;20488;-67
2024/03/20 03:41:25;;;;;;;17.20;10.70;;;7.30;99.90;;;;;;5075813;28;20082;-67
2024/03/20 03:43:51;;;;;;;17.73;11.35;;;7.30;99.90;;;;;;5076418;28;20032;-67
2024/03/20 03:46:16;;;;;;;16.67;10.57;;;7.40;99.90;;;;;;5076347;28;20024;-68
2024/03/20 03:48:42;;;;;;;21.05;11.07;;;7.40;99.90;;;;;;5076219;28;20036;-67
2024/03/20 03:51:08;;;;;;;22.08;13.45;;;7.40;99.90;;;;;;5076254;28;20025;-67
2024/03/20 03:53:34;;;;;;;21.17;11.43;;;7.40;99.90;;;;;;5076080;28;20032;-67
2024/03/20 03:56:00;;;;;;;33.38;15.52;;;7.40;99.90;;;;;;5076194;28;20060;-67
2024/03/20 03:58:25;;;;;;;25.50;13.60;;;7.40;99.90;;;;;;5075736;28;20105;-67
2024/03/20 04:00:51;;;;;;;19.02;12.35;;;7.50;99.90;;;;;;5075594;28;20478;-67
2024/03/20 04:03:16;;;;;;;17.77;11.93;;;7.50;99.90;;;;;;5075629;28;20075;-67
2024/03/20 04:05:44;;;;;;;19.92;11.70;;;7.40;99.90;;;;;;5075969;28;20055;-67
2024/03/20 04:08:09;;;;;;;27.52;15.13;;;7.40;99.90;;;;;;5075637;28;20020;-67
2024/03/20 04:10:36;;;;;;;20.70;13.05;;;7.40;99.90;;;;;;5075836;28;20401;-67
2024/03/20 04:13:02;;;;;;;24.92;13.90;;;7.30;99.90;;;;;;5075621;28;20032;-67
2024/03/20 04:15:27;;;;;;;24.65;12.30;;;7.30;99.90;;;;;;5075615;28;20035;-67
2024/03/20 04:17:53;;;;;;;20.75;12.18;;;7.30;99.90;;;;;;5075487;28;20070;-67
2024/03/20 04:20:19;;;;;;;25.58;13.65;;;7.30;99.90;;;;;;5075427;28;20028;-67
2024/03/20 04:22:47;;;;;;;23.08;13.13;;;7.20;99.90;;;;;;5075750;28;20021;-67
2024/03/20 04:25:12;;;;;;;24.95;13.15;;;7.20;99.90;;;;;;5075519;28;20032;-67
2024/03/20 04:27:38;;;;;;;22.35;13.50;;;7.20;99.90;;;;;;5075624;28;20033;-67
2024/03/20 04:30:06;;;;;;;21.20;12.73;;;7.20;99.90;;;;;;5075537;28;20082;-67
2024/03/20 04:32:32;;;;;;;23.02;13.00;;;7.20;99.90;;;;;;5075446;28;20100;-67
2024/03/20 04:34:57;;;;;;;23.77;13.40;;;7.10;99.90;;;;;;5075041;28;20051;-67
2024/03/20 04:37:23;;;;;;;21.63;12.75;;;7.10;99.90;;;;;;5075260;28;20032;-67
2024/03/20 04:39:48;;;;;;;22.25;13.20;;;7.10;99.90;;;;;;5074903;28;20047;-67
2024/03/20 04:42:14;;;;;;;20.25;12.15;;;7.10;99.90;;;;;;5075266;28;20132;-68
2024/03/20 04:44:40;;;;;;;18.85;12.73;;;7.00;99.90;;;;;;5075250;28;20387;-68
2024/03/20 04:47:05;;;;;;;21.95;12.60;;;7.00;99.90;;;;;;5074885;28;20028;-67
2024/03/20 04:49:31;;;;;;;21.23;13.32;;;7.00;99.90;;;;;;5074947;28;20025;-67
2024/03/20 04:51:56;;;;;;;26.58;14.48;;;7.00;99.90;;;;;;5074824;28;20024;-67
2024/03/20 04:54:22;;;;;;;22.80;14.52;;;7.00;99.90;;;;;;5074877;28;20111;-67
2024/03/20 04:56:47;;;;;;;20.00;12.73;;;7.00;99.90;;;;;;5075035;28;20064;-67
2024/03/20 04:59:13;;;;;;;20.42;12.65;;;7.00;99.90;;;;;;5074719;28;20051;-68
2024/03/20 05:01:39;;;;;;;22.75;13.95;;;6.90;99.90;;;;;;5074697;28;20047;-67
2024/03/20 05:04:04;;;;;;;21.75;13.93;;;6.90;99.90;;;;;;5074620;28;20097;-67
2024/03/20 05:06:30;;;;;;;24.63;14.35;;;6.90;99.90;;;;;;5075068;28;20032;-67
2024/03/20 05:08:55;;;;;;;33.08;15.50;;;6.80;99.90;;;;;;5074720;28;20482;-67
2024/03/20 05:11:21;;;;;;;25.92;15.05;;;6.80;99.90;;;;;;5074643;28;20081;-67
2024/03/20 05:13:46;;;;;;;24.55;14.25;;;6.80;99.90;;;;;;5074727;28;20115;-67
2024/03/20 05:16:12;;;;;;;22.80;13.55;;;6.70;99.90;;;;;;5074720;28;20032;-67
2024/03/20 05:18:38;;;;;;;28.00;16.30;;;6.70;99.90;;;;;;5074189;28;20032;-67
2024/03/20 05:21:03;;;;;;;22.05;14.75;;;6.60;99.90;;;;;;5074158;28;20029;-67
2024/03/20 05:23:29;;;;;;;20.95;14.10;;;6.60;99.90;;;;;;5074006;28;20021;-67
2024/03/20 05:25:55;;;;;;;24.98;14.55;;;6.60;99.90;;;;;;5074336;28;20055;-67
2024/03/20 05:28:21;;;;;;;22.83;14.93;;;6.60;99.90;;;;;;5073051;28;20028;-67
2024/03/20 05:30:48;;;;;;;23.08;15.20;;;6.60;99.90;;;;;;5073921;28;20021;-67
2024/03/20 05:33:14;;;;;;;31.60;16.67;;;6.60;99.90;;;;;;5074017;28;20051;-67
2024/03/20 05:35:39;;;;;;;23.58;14.63;;;6.60;99.90;;;;;;5074281;28;20113;-67
2024/03/20 05:38:05;;;;;;;28.45;15.80;;;6.50;99.90;;;;;;5073940;28;20032;-67
2024/03/20 05:40:30;;;;;;;24.88;16.08;;;6.60;99.90;;;;;;5073685;28;20055;-67
2024/03/20 05:42:56;;;;;;;25.67;14.98;;;6.60;99.90;;;;;;5074063;28;20024;-67
2024/03/20 05:45:22;;;;;;;25.42;15.90;;;6.60;99.90;;;;;;5073561;28;20112;-67
2024/03/20 05:47:48;;;;;;;28.88;15.85;;;6.60;99.90;;;;;;5073702;28;20035;-67
2024/03/20 05:50:13;;;;;;;26.10;15.60;;;6.70;99.90;;;;;;5073541;28;20119;-67
2024/03/20 05:52:39;;;;;;;25.95;15.85;;;6.80;99.90;;;;;;5074162;28;20432;-67
2024/03/20 05:55:05;;;;;;;22.42;15.13;;;6.80;99.90;;;;;;5073479;28;20024;-67
2024/03/20 05:57:30;;;;;;;30.95;17.08;;;6.90;99.90;;;;;;5073658;28;20024;-67
2024/03/20 05:59:56;;;;;;;29.67;16.73;;;7.00;99.90;;;;;;5073617;28;20520;-67
2024/03/20 06:02:22;;;;;;;29.65;17.08;;;7.10;99.90;;;;;;5073619;28;20108;-67
2024/03/20 06:04:47;;;;;;;34.45;18.77;;;7.10;99.90;;;;;;5073562;28;20547;-67
2024/03/20 06:07:13;;;;;;;31.10;19.13;;;7.20;99.90;;;;;;5073592;28;20394;-67
2024/03/20 06:09:39;;;;;;;33.00;17.23;;;7.30;99.90;;;;;;5073653;28;20497;-67
2024/03/20 06:12:05;;;;;;;33.72;18.88;;;7.30;99.90;;;;;;5073440;28;20032;-67
2024/03/20 06:14:31;;;;;;;29.25;18.13;;;7.40;99.90;;;;;;5073529;28;20467;-67
2024/03/20 06:16:59;;;;;;;33.28;17.48;;;7.50;99.90;;;;;;5073345;28;20429;-68
2024/03/20 06:19:24;;;;;;;30.55;16.83;;;7.60;99.90;;;;;;5073245;28;20111;-67
2024/03/20 06:21:50;;;;;;;35.85;18.60;;;7.80;99.90;;;;;;5073176;28;20108;-67
2024/03/20 06:24:15;;;;;;;25.60;16.65;;;7.90;99.90;;;;;;5073325;28;20051;-68
2024/03/20 06:26:41;;;;;;;27.10;17.42;;;8.00;99.90;;;;;;5073502;28;20443;-68
2024/03/20 06:29:07;;;;;;;28.35;16.90;;;8.20;99.90;;;;;;5073190;28;20521;-68
2024/03/20 06:31:33;;;;;;;28.35;16.67;;;8.30;99.90;;;;;;5073364;28;20089;-68
2024/03/20 06:33:59;;;;;;;25.95;15.88;;;8.50;99.90;;;;;;5072982;28;20025;-68
2024/03/20 06:36:24;;;;;;;26.77;15.80;;;8.70;99.90;;;;;;5073009;28;20466;-68
2024/03/20 06:38:50;;;;;;;28.08;16.52;;;8.90;99.90;;;;;;5073213;28;20148;-68
2024/03/20 06:41:17;;;;;;;22.65;16.05;;;9.10;99.90;;;;;;5072702;28;20067;-68
2024/03/20 06:43:50;;;;;;;30.98;15.30;;;9.40;99.90;;;;;;5073368;28;20017;-68
2024/03/20 06:46:16;;;;;;;27.35;14.73;;;9.70;99.90;;;;;;5073302;28;20020;-68
2024/03/20 06:48:43;;;;;;;24.20;14.77;;;10.40;99.90;;;;;;5073322;28;20032;-68
2024/03/20 06:51:09;;;;;;;19.92;13.15;;;10.80;99.90;;;;;;5073101;28;20024;-68
2024/03/20 06:53:35;;;;;;;23.40;13.15;;;11.10;99.90;;;;;;5072684;28;20025;-68
2024/03/20 06:56:02;;;;;;;21.10;12.60;;;11.40;99.80;;;;;;5073153;28;20036;-68
2024/03/20 06:58:27;;;;;;;21.80;12.95;;;11.40;66.60;;;;;;5072902;28;20082;-68
2024/03/20 07:00:54;;;;;;;26.60;14.65;;;11.30;67.40;;;;;;5072958;28;20494;-68
2024/03/20 07:03:19;;;;;;;27.75;12.00;;;11.50;56.40;;;;;;5075925;28;20052;-68
2024/03/20 07:05:45;;;;;;;18.25;11.63;;;11.90;32.50;;;;;;5076668;28;20078;-68
2024/03/20 07:08:11;;;;;;;19.75;12.52;;;12.30;10.80;;;;;;5076843;28;20023;-68
2024/03/20 07:10:37;;;;;;;19.50;12.77;;;12.80;1.00;;;;;;5076999;28;20474;-68
2024/03/20 07:13:05;;;;;;;19.38;12.27;;;13.10;1.00;;;;;;5076437;28;20029;-69
2024/03/20 07:15:32;;;;;;;19.73;11.73;;;13.50;1.00;;;;;;5071983;28;20123;-69
2024/03/20 07:17:58;;;;;;;16.60;10.65;;;13.70;99.90;;;;;;5070001;28;20032;-68
2024/03/20 07:20:24;;;;;;;17.58;11.00;;;13.60;99.90;;;;;;5080770;28;20024;-68
2024/03/20 07:22:50;;;;;;;17.45;10.65;;;14.40;99.90;;;;;;5076633;28;20028;-69
2024/03/20 07:25:16;;;;;;;15.98;10.90;;;15.10;99.90;;;;;;5076477;28;20371;-69
2024/03/20 07:27:42;;;;;;;14.70;10.27;;;15.80;1.00;;;;;;5076359;28;20035;-69
2024/03/20 07:30:08;;;;;;;22.65;10.68;;;16.90;99.90;;;;;;5076485;28;20031;-69
2024/03/20 07:32:35;;;;;;;20.02;10.48;;;17.40;99.90;;;;;;5075817;28;20024;-67
2024/03/20 07:35:01;;;;;;;23.83;10.77;;;17.50;99.90;;;;;;5076335;28;20479;-67
2024/03/20 07:37:28;;;;;;;20.83;10.48;;;17.40;99.90;;;;;;5075691;28;20471;-67
2024/03/20 07:39:54;;;;;;;20.40;10.13;;;17.00;99.90;;;;;;5076197;28;20132;-67
2024/03/20 07:42:19;;;;;;;16.05;9.65;;;16.90;1.00;;;;;;5076238;28;20548;-68
2024/03/20 07:44:45;;;;;;;15.30;9.38;;;17.10;99.90;;;;;;5076103;28;20033;-68
2024/03/20 07:47:11;;;;;;;20.45;9.07;;;17.30;99.90;;;;;;5078496;28;20020;-68
2024/03/20 07:49:36;;;;;;;14.02;8.65;;;17.60;99.90;;;;;;5075889;28;20025;-68
2024/03/20 07:52:02;;;;;;;15.93;9.32;;;17.40;98.80;;;;;;5075992;28;20457;-68
2024/03/20 07:54:27;;;;;;;15.98;9.30;;;17.10;99.90;;;;;;5075756;28;20037;-69
2024/03/20 07:56:54;;;;;;;17.75;9.43;;;17.20;99.90;;;;;;5075339;28;20055;-68
2024/03/20 07:59:21;;;;;;;16.98;8.77;;;17.10;99.90;;;;;;5075941;28;20035;-67
2024/03/20 08:01:47;;;;;;;11.25;8.50;;;17.30;13.30;;;;;;5084746;28;20032;-68
2024/03/20 08:04:13;;;;;;;19.45;10.00;;;17.40;1.00;;;;;;5078795;28;20093;-67
2024/03/20 08:06:39;;;;;;;14.18;8.80;;;17.60;1.00;;;;;;5075255;28;20021;-67
2024/03/20 08:09:05;;;;;;;12.00;7.30;;;17.70;1.00;;;;;;5075717;28;20044;-67
2024/03/20 08:11:32;;;;;;;11.63;7.70;;;18.10;99.90;;;;;;5075589;28;20397;-67
2024/03/20 08:13:57;;;;;;;12.68;7.90;;;18.00;99.90;;;;;;5078645;28;20028;-67
2024/03/20 08:16:23;;;;;;;10.93;7.60;;;18.10;99.90;;;;;;5079221;28;20040;-67
2024/03/20 08:18:49;;;;;;;11.48;6.97;;;18.30;99.90;;;;;;5075711;28;20028;-68
2024/03/20 08:21:15;;;;;;;11.40;7.88;;;18.30;99.90;;;;;;5075304;28;20033;-67
2024/03/20 08:23:41;;;;;;;8.35;6.20;;;18.10;99.90;;;;;;5075415;28;20016;-67
2024/03/20 08:26:07;;;;;;;12.38;6.22;;;18.60;99.90;;;;;;5075721;28;20066;-67
2024/03/20 08:28:33;;;;;;;10.93;6.35;;;18.30;99.90;;;;;;5088828;28;20477;-67
2024/03/20 08:30:58;;;;;;;10.85;6.15;;;18.30;99.90;;;;;;5075160;28;20039;-68
2024/03/20 08:33:24;;;;;;;13.90;7.22;;;18.10;99.90;;;;;;5075085;28;20040;-68
2024/03/20 08:35:58;;;;;;;11.75;6.88;;;17.90;99.90;;;;;;5075507;28;20111;-68
2024/03/20 08:38:24;;;;;;;9.10;6.97;;;17.70;99.90;;;;;;5075241;28;20482;-68
2024/03/20 08:40:49;;;;;;;11.45;7.40;;;17.80;99.90;;;;;;5084139;28;20401;-68
2024/03/20 08:43:15;;;;;;;11.13;7.15;;;18.20;99.90;;;;;;5074986;28;20033;-68
2024/03/20 08:45:41;;;;;;;14.13;7.53;;;18.30;99.90;;;;;;5078923;28;20496;-68
2024/03/20 08:48:07;;;;;;;14.05;8.07;;;18.40;99.90;;;;;;5077811;28;20020;-68
2024/03/20 08:50:34;;;;;;;11.48;7.85;;;17.80;99.90;;;;;;5075720;28;20466;-68
2024/03/20 08:53:01;;;;;;;13.25;7.97;;;18.20;99.90;;;;;;5074606;28;20028;-68
2024/03/20 08:55:27;;;;;;;11.63;8.48;;;18.20;99.90;;;;;;5074887;28;20029;-68
2024/03/20 08:57:53;;;;;;;14.23;8.25;;;18.00;99.90;;;;;;5073842;28;20036;-68
2024/03/20 09:00:19;;;;;;;12.75;8.70;;;17.90;99.90;;;;;;5075680;28;20371;-68
2024/03/20 09:02:47;;;;;;;17.33;8.15;;;18.40;99.90;;;;;;5075628;28;20498;-68
2024/03/20 09:05:13;;;;;;;13.38;7.90;;;18.70;99.90;;;;;;5075464;28;20032;-68
2024/03/20 09:07:40;;;;;;;16.17;8.38;;;18.70;99.90;;;;;;5075076;28;20028;-68
2024/03/20 09:10:06;;;;;;;11.18;7.40;;;18.40;99.90;;;;;;5073876;28;20064;-68
2024/03/20 09:12:31;;;;;;;15.40;7.70;;;18.80;99.90;;;;;;5082542;28;20025;-68
2024/03/20 09:14:57;;;;;;;13.88;8.40;;;19.10;99.90;;;;;;5088886;28;20389;-68
2024/03/20 09:17:22;;;;;;;14.02;7.90;;;19.40;99.90;;;;;;5079417;28;20020;-68
2024/03/20 09:19:48;;;;;;;13.15;8.55;;;18.90;99.90;;;;;;5074812;28;20406;-69
2024/03/20 09:22:13;;;;;;;10.95;7.43;;;18.80;99.90;;;;;;5079009;28;20395;-68
2024/03/20 09:24:39;;;;;;;15.48;8.10;;;19.60;99.90;;;;;;5075567;28;20033;-69
2024/03/20 09:27:04;;;;;;;12.55;8.32;;;19.70;99.90;;;;;;5076146;28;20036;-68
2024/03/20 09:29:30;;;;;;;12.48;7.75;;;19.70;99.90;;;;;;5085693;28;20382;-68
2024/03/20 09:31:55;;;;;;;14.27;7.60;;;19.30;99.90;;;;;;5086571;28;20028;-68
2024/03/20 09:34:21;;;;;;;14.20;7.28;;;19.40;99.90;;;;;;5076420;28;20040;-68
2024/03/20 09:36:49;;;;;;;11.75;7.10;;;19.30;99.90;;;;;;5074825;28;20033;-69
2024/03/20 09:39:15;;;;;;;16.10;8.43;;;19.40;99.90;;;;;;5083357;28;20047;-69
2024/03/20 09:41:41;;;;;;;13.57;7.72;;;19.40;99.90;;;;;;5076273;28;20032;-68
2024/03/20 09:44:10;;;;;;;17.10;7.47;;;19.30;99.90;;;;;;5074198;28;20038;-69
2024/03/20 09:46:36;;;;;;;14.02;7.47;;;19.10;99.90;;;;;;5075892;28;20024;-68
2024/03/20 09:49:02;;;;;;;8.98;7.30;;;19.10;99.90;;;;;;5077151;28;20385;-68
2024/03/20 09:51:28;;;;;;;14.02;7.57;;;19.20;99.90;;;;;;5078492;28;20028;-69
2024/03/20 09:53:54;;;;;;;12.00;7.00;;;20.40;99.90;;;;;;5077655;28;20470;-70
2024/03/20 09:56:21;;;;;;;15.35;7.82;;;20.60;99.90;;;;;;5072649;28;20031;-70
2024/03/20 09:58:48;;;;;;;10.93;7.20;;;20.90;67.50;;;;;;5072843;28;20040;-69
2024/03/20 10:01:15;;;;;;;16.33;8.10;;;20.10;65.60;;;;;;5075487;28;20029;-68
2024/03/20 10:03:43;;;;;;;12.77;7.43;;;19.70;94.20;;;;;;5073714;28;20081;-69
2024/03/20 10:06:10;;;;;;;13.95;7.90;;;19.70;99.90;;;;;;5072818;28;20021;-68
2024/03/20 10:08:39;;;;;;;16.35;7.60;;;20.20;99.90;;;;;;5072934;28;20115;-69
2024/03/20 10:11:05;;;;;;;14.63;7.82;;;19.90;99.90;;;;;;5087824;28;20500;-69
2024/03/20 10:13:31;;;;;;;14.75;7.53;;;20.30;99.90;;;;;;5079722;28;20546;-69
2024/03/20 10:16:08;;;;;;;12.13;7.20;;;20.60;77.30;;;;;;5072170;28;20119;-68
2024/03/20 10:18:34;;;;;;;10.38;6.43;;;21.00;59.80;;;;;;5076463;28;20101;-70
2024/03/20 10:21:02;;;;;;;10.57;5.88;;;21.60;47.90;;;;;;5077010;28;20064;-69
2024/03/20 10:23:29;;;;;;;12.52;6.68;;;22.30;99.90;;;;;;5076606;28;20016;-69
2024/03/20 10:25:59;;;;;;;9.57;7.18;;;21.60;24.30;;;;;;5074002;28;20021;-68
2024/03/20 10:28:29;;;;;;;10.60;7.07;;;20.80;15.70;;;;;;5074005;28;20489;-68
2024/03/20 10:31:02;;;;;;;13.40;6.90;;;20.30;30.40;;;;;;5072420;28;20029;-69
2024/03/20 10:33:28;;;;;;;;;;;19.90;49.10;;;;;;5081284;28;20028;-69
2024/03/20 10:35:54;;;;;;;17.27;7.60;;;19.80;80.90;;;;;;5075783;28;20003;-69
2024/03/20 10:38:22;;;;;;;10.05;7.20;;;19.90;81.20;;;;;;5085292;28;20040;-70
2024/03/20 10:40:50;;;;;;;12.23;7.15;;;20.20;69.60;;;;;;5080001;28;20383;-69
2024/03/20 10:43:21;;;;;;;10.30;6.88;;;20.70;89.40;;;;;;5073247;28;20074;-69
2024/03/20 10:45:48;;;;;;;15.48;6.80;;;21.00;52.10;;;;;;5077215;28;20056;-69
2024/03/20 10:48:17;;;;;;;11.85;7.32;;;21.20;55.70;;;;;;5080256;28;20036;-69
2024/03/20 10:50:47;;;;;;;14.30;7.57;;;21.30;26.20;;;;;;5076921;28;20033;-68
2024/03/20 10:53:14;;;;;;;10.80;7.10;;;21.40;9.70;;;;;;5077013;28;20048;-69
2024/03/20 10:55:42;;;;;;;9.80;7.07;;;20.90;45.80;;;;;;5072547;28;20445;-69
2024/03/20 10:58:11;;;;;;;12.50;7.00;;;21.30;39.00;;;;;;5071946;28;20040;-69
2024/03/20 11:00:41;;;;;;;15.77;7.18;;;21.70;28.30;;;;;;5076383;28;20017;-69
2024/03/20 11:03:48;;;;;;;8.95;6.82;;;21.70;25.60;;;;;;5084243;28;20026;-69
2024/03/20 11:06:34;;;;;;;12.35;7.43;;;21.40;21.50;;;;;;5088154;28;20028;-69
2024/03/20 11:09:16;;;;;;;13.90;7.85;;;21.30;17.40;;;;;;5077702;28;20107;-69
2024/03/20 11:11:43;;;;;;;10.95;7.18;;;21.10;15.90;;;;;;5074205;28;20121;-69
2024/03/20 11:14:11;;;;;;;11.85;7.50;;;20.30;23.70;;;;;;5072603;28;20119;-69
2024/03/20 11:16:39;;;;;;;12.40;7.72;;;19.90;56.90;;;;;;5077356;28;20028;-69
2024/03/20 11:19:09;;;;;;;11.57;7.35;;;20.20;46.90;;;;;;5079073;28;20032;-69
2024/03/20 11:21:35;;;;;;;12.45;7.00;;;20.90;50.10;;;;;;5073309;28;20391;-68
2024/03/20 11:24:04;;;;;;;8.50;7.05;;;21.60;47.70;;;;;;5073868;28;20386;-70
2024/03/20 11:26:31;;;;;;;14.57;6.85;;;21.70;40.70;;;;;;5072674;28;20024;-68
2024/03/20 11:28:59;;;;;;;11.55;7.82;;;21.80;56.80;;;;;;5072493;28;20560;-68
2024/03/20 11:31:25;;;;;;;15.20;7.50;;;21.70;27.70;;;;;;5076122;28;20103;-68
2024/03/20 11:33:50;;;;;;;12.68;7.43;;;21.20;30.70;;;;;;5078155;28;20039;-68
2024/03/20 11:36:19;;;;;;;13.07;8.20;;;20.80;31.30;;;;;;5085964;28;20028;-67
2024/03/20 11:38:45;;;;;;;14.45;8.45;;;20.40;22.90;;;;;;5070985;28;20063;-67
2024/03/20 11:41:11;;;;;;;15.50;8.35;;;20.50;25.90;;;;;;5071533;28;20049;-68
2024/03/20 11:43:43;;;;;;;11.25;8.05;;;20.30;21.20;;;;;;5074499;28;20028;-68
2024/03/20 11:46:11;;;;;;;12.43;7.78;;;20.10;33.80;;;;;;5079975;28;20055;-69
2024/03/20 11:48:37;;;;;;;16.85;8.25;;;20.60;23.90;;;;;;5076015;28;20028;-68
2024/03/20 11:51:03;;;;;;;12.10;8.52;;;20.50;28.40;;;;;;5075529;28;20056;-68
2024/03/20 11:53:29;;;;;;;12.55;8.32;;;20.10;24.10;;;;;;5084285;28;20516;-67
2024/03/20 11:55:55;;;;;;;12.52;8.02;;;20.10;32.70;;;;;;5096251;28;20032;-68
2024/03/20 11:58:20;;;;;;;12.18;8.15;;;20.10;45.40;;;;;;5085236;28;20073;-68
2024/03/20 12:00:47;;;;;;;14.98;8.35;;;20.00;38.90;;;;;;5079715;28;20079;-69
2024/03/20 12:03:22;;;;;;;16.67;8.18;;;20.40;39.30;;;;;;5086343;28;20028;-68
2024/03/20 12:05:48;;;;;;;11.68;8.57;;;20.40;32.90;;;;;;5076457;28;20115;-68
2024/03/20 12:08:14;;;;;;;11.05;8.48;;;20.30;43.80;;;;;;5078976;28;20025;-68
2024/03/20 12:10:42;;;;;;;11.48;8.20;;;20.20;47.20;;;;;;5079538;28;20028;-68
2024/03/20 12:13:12;;;;;;;13.10;8.43;;;20.40;74.60;;;;;;5084242;28;20478;-69
2024/03/20 12:15:39;;;;;;;18.50;9.05;;;20.30;68.60;;;;;;5077775;28;20034;-68
2024/03/20 12:18:05;;;;;;;12.13;8.73;;;20.00;60.40;;;;;;5081261;28;20036;-68
2024/03/20 12:20:31;;;;;;;11.45;7.90;;;20.30;50.30;;;;;;5075659;28;20089;-69
2024/03/20 12:22:58;;;;;;;10.82;7.72;;;20.70;64.70;;;;;;5075772;28;20032;-68
2024/03/20 12:25:25;;;;;;;11.07;8.30;;;20.20;56.90;;;;;;5075559;28;20017;-69
2024/03/20 12:27:50;;;;;;;13.02;8.88;;;20.50;63.10;;;;;;5076039;28;20028;-68
2024/03/20 12:30:16;;;;;;;13.80;8.10;;;20.20;42.80;;;;;;5086337;28;20032;-69
2024/03/20 12:32:42;;;;;;;12.02;7.90;;;20.60;55.60;;;;;;5081728;28;20032;-69
2024/03/20 12:35:09;;;;;;;12.43;7.93;;;20.90;40.10;;;;;;5078709;28;20051;-69